createdAt,value
2019-04-26T00:00:10.432Z,93.40
2019-04-26T00:02:46.402Z,93.50
2019-04-26T00:05:16.469Z,93.50
2019-04-26T00:07:46.320Z,93.60
2019-04-26T00:10:25.843Z,93.60
2019-04-26T00:13:08.561Z,93.70
2019-04-26T00:15:58.025Z,93.70
2019-04-26T00:18:27.347Z,93.70
2019-04-26T00:20:56.585Z,93.80
2019-04-26T00:23:25.938Z,93.80
2019-04-26T00:25:55.378Z,93.90
2019-04-26T00:28:24.685Z,93.90
2019-04-26T00:30:54.373Z,93.90
2019-04-26T00:33:23.680Z,94.00
2019-04-26T00:35:52.908Z,94.20
2019-04-26T00:38:22.437Z,94.50
2019-04-26T00:40:52.915Z,94.20
2019-04-26T00:43:22.949Z,94.40
2019-04-26T00:45:53.986Z,94.30
2019-04-26T00:48:25.820Z,94.40
2019-04-26T00:50:56.140Z,94.50
2019-04-26T00:53:27.587Z,94.50
2019-04-26T00:55:57.821Z,94.50
2019-04-26T00:58:29.361Z,94.70
2019-04-26T01:00:59.121Z,94.70
2019-04-26T01:03:28.285Z,94.90
2019-04-26T01:06:00.113Z,95.30
2019-04-26T01:08:29.766Z,94.90
2019-04-26T01:10:59.092Z,94.80
2019-04-26T01:13:28.557Z,94.90
2019-04-26T01:15:57.887Z,94.90
2019-04-26T01:18:27.172Z,94.90
2019-04-26T01:20:58.780Z,95.00
2019-04-26T01:23:30.668Z,94.90
2019-04-26T01:26:19.282Z,94.90
2019-04-26T01:29:03.135Z,94.90
2019-04-26T01:31:35.626Z,94.90
2019-04-26T01:34:04.905Z,94.90
2019-04-26T01:36:37.111Z,94.80
2019-04-26T01:39:19.672Z,95.00
2019-04-26T01:41:59.910Z,95.00
2019-04-26T01:44:57.318Z,94.90
2019-04-26T01:47:26.933Z,94.90
2019-04-26T01:49:56.369Z,94.90
2019-04-26T01:52:25.744Z,94.90
2019-04-26T01:54:55.336Z,94.80
2019-04-26T01:57:27.598Z,94.90
2019-04-26T02:00:02.748Z,95.10
2019-04-26T02:02:42.832Z,95.00
2019-04-26T02:05:37.274Z,95.20
2019-04-26T02:08:06.519Z,95.20
2019-04-26T02:10:35.763Z,95.30
2019-04-26T02:13:05.035Z,95.40
2019-04-26T02:15:34.853Z,95.50
2019-04-26T02:18:04.355Z,95.60
2019-04-26T02:20:55.358Z,95.60
2019-04-26T02:23:30.681Z,95.60
2019-04-26T02:26:19.094Z,95.70
2019-04-26T02:28:48.879Z,95.90
2019-04-26T02:31:18.135Z,95.90
2019-04-26T02:33:47.503Z,95.90
2019-04-26T02:36:16.939Z,96.00
2019-04-26T02:38:47.287Z,96.10
2019-04-26T02:41:16.561Z,96.10
2019-04-26T02:43:48.806Z,96.20
2019-04-26T02:46:29.281Z,96.10
2019-04-26T02:49:25.207Z,96.30
2019-04-26T02:52:03.918Z,96.40
2019-04-26T02:54:46.307Z,96.30
2019-04-26T02:57:36.645Z,96.50
2019-04-26T03:00:10.534Z,96.50
2019-04-26T03:02:40.416Z,96.50
2019-04-26T03:05:10.866Z,96.70
2019-04-26T03:08:11.001Z,96.70
2019-04-26T03:11:07.825Z,96.50
2019-04-26T03:13:49.381Z,96.70
2019-04-26T03:16:28.274Z,96.70
2019-04-26T03:19:13.371Z,96.80
2019-04-26T03:21:57.012Z,96.90
2019-04-26T03:24:35.035Z,97.10
2019-04-26T03:27:35.098Z,97.20
2019-04-26T03:30:22.887Z,97.20
2019-04-26T03:33:38.605Z,97.10
2019-04-26T03:36:33.891Z,97.20
2019-04-26T03:39:24.568Z,97.30
2019-04-26T03:42:21.292Z,97.20
2019-04-26T03:45:20.257Z,97.20
2019-04-26T03:47:58.500Z,97.30
2019-04-26T03:50:39.690Z,97.10
2019-04-26T03:53:35.456Z,97.20
2019-04-26T03:57:04.204Z,97.00
2019-04-26T03:59:57.982Z,97.00
2019-04-26T04:02:53.488Z,97.00
2019-04-26T04:05:43.553Z,97.00
2019-04-26T04:08:17.034Z,96.90
2019-04-26T04:10:57.180Z,96.90
2019-04-26T04:13:50.536Z,97.10
2019-04-26T04:16:39.212Z,97.00
2019-04-26T04:19:21.971Z,97.00
2019-04-26T04:21:59.885Z,97.00
2019-04-26T04:24:39.073Z,96.90
2019-04-26T04:27:23.985Z,96.90
2019-04-26T04:30:25.455Z,96.70
2019-04-26T04:33:35.368Z,96.60
2019-04-26T04:36:16.230Z,96.40
2019-04-26T04:39:13.111Z,96.20
2019-04-26T04:42:29.097Z,96.10
2019-04-26T04:45:50.068Z,96.00
2019-04-26T04:48:32.951Z,95.90
2019-04-26T04:51:17.061Z,95.80
2019-04-26T04:54:00.417Z,95.60
2019-04-26T04:57:23.026Z,95.60
2019-04-26T05:00:07.560Z,95.50
2019-04-26T05:03:31.902Z,95.20
2019-04-26T05:06:26.682Z,95.10
2019-04-26T05:09:08.311Z,94.80
2019-04-26T05:11:51.881Z,94.50
2019-04-26T05:15:07.272Z,94.30
2019-04-26T05:18:00.018Z,93.80
2019-04-26T05:20:35.193Z,93.20
2019-04-26T05:23:48.904Z,93.50
2019-04-26T05:27:28.465Z,93.60
2019-04-26T05:30:17.954Z,93.60
2019-04-26T05:33:26.683Z,93.40
2019-04-26T05:36:06.475Z,93.50
2019-04-26T05:39:08.625Z,92.80
2019-04-26T05:42:13.818Z,92.60
2019-04-26T05:45:23.183Z,92.60
2019-04-26T05:48:19.199Z,91.60
2019-04-26T05:51:28.560Z,91.90
2019-04-26T05:54:42.981Z,91.40
2019-04-26T05:57:37.389Z,91.10
2019-04-26T06:01:12.149Z,90.80
2019-04-26T06:04:40.642Z,90.60
2019-04-26T06:07:38.251Z,90.20
2019-04-26T06:10:24.923Z,90.50
2019-04-26T06:13:46.679Z,89.10
2019-04-26T06:16:35.878Z,89.40
2019-04-26T06:19:27.275Z,87.70
2019-04-26T06:22:20.335Z,86.20
2019-04-26T06:25:26.051Z,84.90
2019-04-26T06:28:29.057Z,84.80
2019-04-26T06:31:12.212Z,83.70
2019-04-26T06:34:09.077Z,83.20
2019-04-26T06:37:12.416Z,83.20
2019-04-26T06:40:11.649Z,80.70
2019-04-26T06:43:06.147Z,79.90
2019-04-26T06:46:06.964Z,79.70
2019-04-26T06:49:08.206Z,80.50
2019-04-26T06:51:44.080Z,79.40
2019-04-26T06:54:20.737Z,77.40
2019-04-26T06:57:28.363Z,75.90
2019-04-26T07:00:10.172Z,76.80
2019-04-26T07:02:57.524Z,76.10
2019-04-26T07:05:30.127Z,75.80
2019-04-26T07:08:42.392Z,75.40
2019-04-26T07:12:08.427Z,74.20
2019-04-26T07:15:27.540Z,73.00
2019-04-26T07:18:17.406Z,74.60
2019-04-26T07:21:16.559Z,72.90
2019-04-26T07:24:25.376Z,71.30
2019-04-26T07:27:26.363Z,69.80
2019-04-26T07:30:17.393Z,69.90
2019-04-26T07:33:26.347Z,65.90
2019-04-26T07:36:31.272Z,65.70
2019-04-26T07:39:47.690Z,64.70
2019-04-26T07:43:01.705Z,67.10
2019-04-26T07:45:55.350Z,64.20
2019-04-26T07:48:53.009Z,61.50
2019-04-26T07:51:59.359Z,61.20
2019-04-26T07:55:31.092Z,62.00
2019-04-26T07:58:26.831Z,60.10
2019-04-26T08:01:14.152Z,61.60
2019-04-26T08:03:55.541Z,59.70
2019-04-26T08:06:43.105Z,59.80
2019-04-26T08:09:26.226Z,59.70
2019-04-26T08:11:53.422Z,59.90
2019-04-26T08:14:29.016Z,58.60
2019-04-26T08:17:20.639Z,57.90
2019-04-26T08:20:02.265Z,58.00
2019-04-26T08:22:34.915Z,56.90
2019-04-26T08:25:06.906Z,57.30
2019-04-26T08:27:39.984Z,56.40
2019-04-26T08:30:17.090Z,57.40
2019-04-26T08:32:52.273Z,55.30
2019-04-26T08:35:29.423Z,56.60
2019-04-26T08:38:08.019Z,55.70
2019-04-26T08:40:36.722Z,54.80
2019-04-26T08:43:33.233Z,51.40
2019-04-26T08:46:43.622Z,52.30
2019-04-26T08:49:35.076Z,50.90
2019-04-26T08:52:14.174Z,50.10
2019-04-26T08:54:45.302Z,51.20
2019-04-26T08:57:16.771Z,52.00
2019-04-26T08:59:48.366Z,51.10
2019-04-26T09:02:52.325Z,52.30
2019-04-26T09:05:49.924Z,51.90
2019-04-26T09:08:25.157Z,51.30
2019-04-26T09:10:58.601Z,52.10
2019-04-26T09:13:31.947Z,51.60
2019-04-26T09:16:12.960Z,52.60
2019-04-26T09:18:43.814Z,48.40
2019-04-26T09:21:17.013Z,48.10
2019-04-26T09:24:03.301Z,49.00
2019-04-26T09:26:55.181Z,47.80
2019-04-26T09:29:30.561Z,48.00
2019-04-26T09:32:10.068Z,48.70
2019-04-26T09:34:41.230Z,50.10
2019-04-26T09:37:11.212Z,49.20
2019-04-26T09:39:42.102Z,46.90
2019-04-26T09:42:20.569Z,47.00
2019-04-26T09:45:05.446Z,46.70
2019-04-26T09:47:44.021Z,46.50
2019-04-26T09:50:21.723Z,46.50
2019-04-26T09:52:52.019Z,48.70
2019-04-26T09:55:21.307Z,49.40
2019-04-26T09:57:53.507Z,48.70
2019-04-26T10:00:28.182Z,50.10
2019-04-26T10:02:57.498Z,51.40
2019-04-26T10:05:27.064Z,51.10
2019-04-26T10:07:56.311Z,50.50
2019-04-26T10:10:30.930Z,50.60
2019-04-26T10:13:07.222Z,50.70
2019-04-26T10:15:58.110Z,49.20
2019-04-26T10:18:25.972Z,48.90
2019-04-26T10:20:55.383Z,49.60
2019-04-26T10:23:24.630Z,50.20
2019-04-26T10:25:53.978Z,48.80
2019-04-26T10:28:23.820Z,48.60
2019-04-26T10:30:53.137Z,47.10
2019-04-26T10:33:22.522Z,46.90
2019-04-26T10:35:52.573Z,47.70
2019-04-26T10:38:23.730Z,47.90
2019-04-26T10:40:53.867Z,47.60
2019-04-26T10:43:23.220Z,47.20
2019-04-26T10:45:54.151Z,47.00
2019-04-26T10:48:24.416Z,46.90
2019-04-26T10:50:53.655Z,45.60
2019-04-26T10:53:50.333Z,46.10
2019-04-26T10:56:36.704Z,45.40
2019-04-26T10:59:28.361Z,45.40
2019-04-26T11:01:57.658Z,46.80
2019-04-26T11:04:27.005Z,46.50
2019-04-26T11:06:58.082Z,46.60
2019-04-26T11:09:27.277Z,47.60
2019-04-26T11:11:56.503Z,45.30
2019-04-26T11:14:25.822Z,46.60
2019-04-26T11:16:55.159Z,45.50
2019-04-26T11:19:24.366Z,46.70
2019-04-26T11:21:54.776Z,46.30
2019-04-26T11:24:24.666Z,45.60
2019-04-26T11:26:54.040Z,46.00
2019-04-26T11:29:25.005Z,45.50
2019-04-26T11:31:54.314Z,43.50
2019-04-26T11:34:25.052Z,43.70
2019-04-26T11:36:54.409Z,44.10
2019-04-26T11:39:23.683Z,43.80
2019-04-26T11:41:53.181Z,43.50
2019-04-26T11:44:23.400Z,43.10
2019-04-26T11:46:53.678Z,43.80
2019-04-26T11:49:22.988Z,43.00
2019-04-26T11:51:52.363Z,43.60
2019-04-26T11:54:22.244Z,43.40
2019-04-26T11:56:51.494Z,42.70
2019-04-26T11:59:20.861Z,42.60
2019-04-26T12:01:50.203Z,42.60
2019-04-26T12:04:38.509Z,44.20
2019-04-26T12:07:20.573Z,44.70
2019-04-26T12:09:51.820Z,44.70
2019-04-26T12:12:21.089Z,44.30
2019-04-26T12:14:51.119Z,44.10
2019-04-26T12:17:20.407Z,43.00
2019-04-26T12:19:52.231Z,40.80
2019-04-26T12:22:20.877Z,41.70
2019-04-26T12:24:50.235Z,41.70
2019-04-26T12:27:20.008Z,42.50
2019-04-26T12:29:49.821Z,42.00
2019-04-26T12:32:19.358Z,40.80
2019-04-26T12:34:48.705Z,40.60
2019-04-26T12:37:19.957Z,40.10
2019-04-26T12:39:49.369Z,41.00
2019-04-26T12:42:18.734Z,41.00
2019-04-26T12:45:16.776Z,41.10
2019-04-26T12:47:48.783Z,41.40
2019-04-26T12:50:18.164Z,40.20
2019-04-26T12:52:47.517Z,40.60
2019-04-26T12:55:18.447Z,40.10
2019-04-26T12:57:47.868Z,40.00
2019-04-26T13:00:22.133Z,40.00
2019-04-26T13:02:54.233Z,40.90
2019-04-26T13:05:22.438Z,40.00
2019-04-26T13:07:53.589Z,40.00
2019-04-26T13:10:53.983Z,39.40
2019-04-26T13:13:42.887Z,39.90
2019-04-26T13:16:21.737Z,39.70
2019-04-26T13:18:51.822Z,38.30
2019-04-26T13:21:21.199Z,37.00
2019-04-26T13:23:50.463Z,34.30
2019-04-26T13:26:19.976Z,33.10
2019-04-26T13:28:52.447Z,31.80
2019-04-26T13:31:21.751Z,31.90
2019-04-26T13:33:51.049Z,30.60
2019-04-26T13:36:20.343Z,32.00
2019-04-26T13:38:49.670Z,31.50
2019-04-26T13:41:18.981Z,31.70
2019-04-26T13:43:48.170Z,32.30
2019-04-26T13:46:40.991Z,33.70
2019-04-26T13:49:18.041Z,34.20
2019-04-26T13:51:46.427Z,33.60
2019-04-26T13:54:16.564Z,33.60
2019-04-26T13:56:46.750Z,33.40
2019-04-26T13:59:16.033Z,33.80
2019-04-26T14:01:45.400Z,33.50
2019-04-26T14:04:15.060Z,33.80
2019-04-26T14:06:44.369Z,35.30
2019-04-26T14:09:14.926Z,34.90
2019-04-26T14:11:44.609Z,33.20
2019-04-26T14:14:13.786Z,32.80
2019-04-26T14:16:43.307Z,33.00
2019-04-26T14:19:15.420Z,31.80
2019-04-26T14:21:43.824Z,32.60
2019-04-26T14:24:23.994Z,32.70
2019-04-26T14:26:56.644Z,32.30
2019-04-26T14:29:28.381Z,32.10
2019-04-26T14:31:57.035Z,32.30
2019-04-26T14:34:26.287Z,32.70
2019-04-26T14:37:05.912Z,33.30
2019-04-26T14:39:38.304Z,32.00
2019-04-26T14:41:58.435Z,31.20
2019-04-26T14:44:31.256Z,31.20
2019-04-26T14:46:59.007Z,32.10
2019-04-26T14:49:38.442Z,31.80
2019-04-26T14:51:59.294Z,31.30
2019-04-26T14:54:28.531Z,32.00
2019-04-26T14:56:59.819Z,32.20
2019-04-26T15:00:04.874Z,31.80
2019-04-26T15:03:04.772Z,32.60
2019-04-26T15:05:51.867Z,32.30
2019-04-26T15:08:22.592Z,32.50
2019-04-26T15:11:00.159Z,31.90
2019-04-26T15:13:23.646Z,32.20
2019-04-26T15:15:53.117Z,31.60
2019-04-26T15:18:22.599Z,32.00
2019-04-26T15:20:53.074Z,31.20
2019-04-26T15:23:23.955Z,31.60
2019-04-26T15:25:53.831Z,31.50
2019-04-26T15:28:23.487Z,32.10
2019-04-26T15:30:52.870Z,31.70
2019-04-26T15:33:22.462Z,32.10
2019-04-26T15:35:52.217Z,31.90
2019-04-26T15:38:22.565Z,32.30
2019-04-26T15:41:17.094Z,31.50
2019-04-26T15:44:06.979Z,31.90
2019-04-26T15:46:58.285Z,31.80
2019-04-26T15:49:55.519Z,31.20
2019-04-26T15:52:24.871Z,31.70
2019-04-26T15:54:58.933Z,32.00
2019-04-26T15:57:31.281Z,32.50
2019-04-26T15:59:58.098Z,32.50
2019-04-26T16:02:26.953Z,32.90
2019-04-26T16:04:56.263Z,33.10
2019-04-26T16:07:28.772Z,33.10
2019-04-26T16:09:57.573Z,33.40
2019-04-26T16:12:27.318Z,32.80
2019-04-26T16:14:56.709Z,33.40
2019-04-26T16:17:26.050Z,33.50
2019-04-26T16:19:56.048Z,33.50
2019-04-26T16:22:30.101Z,33.70
2019-04-26T16:24:58.194Z,33.90
2019-04-26T16:27:30.910Z,34.50
2019-04-26T16:30:16.890Z,34.40
2019-04-26T16:33:04.470Z,34.90
2019-04-26T16:35:34.331Z,35.30
2019-04-26T16:38:22.481Z,35.50
2019-04-26T16:40:53.507Z,35.80
2019-04-26T16:43:36.482Z,35.70
2019-04-26T16:45:54.373Z,36.10
2019-04-26T16:48:25.829Z,36.00
2019-04-26T16:50:55.419Z,36.40
2019-04-26T16:53:43.823Z,36.80
2019-04-26T16:55:55.792Z,37.30
2019-04-26T16:58:30.937Z,37.50
2019-04-26T17:01:04.562Z,38.50
2019-04-26T17:03:38.228Z,38.30
2019-04-26T17:22:00.962Z,40.50
2019-04-26T17:29:06.599Z,42.40
2019-04-26T17:31:47.185Z,43.60
2019-04-26T17:43:27.741Z,44.50
2019-04-26T18:25:32.871Z,52.30
2019-04-26T18:28:04.494Z,52.50
2019-04-26T18:30:33.591Z,53.20
2019-04-26T18:33:03.079Z,53.40
2019-04-26T18:35:33.771Z,54.00
2019-04-26T18:38:03.721Z,54.20
2019-04-26T18:40:56.123Z,54.50
2019-04-26T18:43:04.235Z,55.10
2019-04-26T18:45:33.482Z,55.30
2019-04-26T18:48:04.689Z,55.90
2019-04-26T18:50:36.534Z,56.60
2019-04-26T18:53:36.963Z,57.10
2019-04-26T18:56:05.022Z,58.40
2019-04-26T18:58:37.970Z,58.60
2019-04-26T19:01:09.480Z,59.20
2019-04-26T19:03:41.011Z,59.70
2019-04-26T19:06:10.273Z,60.50
2019-04-26T19:08:47.716Z,61.00
2019-04-26T19:11:11.704Z,61.10
2019-04-26T19:13:59.316Z,61.70
2019-04-26T19:16:46.430Z,62.20
2019-04-26T19:19:26.039Z,62.80
2019-04-26T19:22:01.493Z,63.40
2019-04-26T19:24:30.502Z,64.80
2019-04-26T19:26:59.863Z,65.80
2019-04-26T19:29:33.720Z,66.30
2019-04-26T19:32:02.868Z,67.90
2019-04-26T19:34:31.365Z,68.80
2019-04-26T19:37:03.128Z,69.90
2019-04-26T19:39:35.163Z,70.30
2019-04-26T19:42:05.917Z,72.10
2019-04-26T19:44:34.101Z,72.40
2019-04-26T19:47:20.152Z,73.00
2019-04-26T19:50:09.752Z,73.00
2019-04-26T19:52:45.043Z,73.40
2019-04-26T19:55:36.354Z,73.70
2019-04-26T19:58:09.631Z,74.20
2019-04-26T20:00:43.407Z,73.50
2019-04-26T20:03:15.153Z,73.80
2019-04-26T20:05:44.204Z,73.90
2019-04-26T20:08:12.111Z,74.20
2019-04-26T20:10:45.369Z,74.50
2019-04-26T20:13:15.193Z,75.00
2019-04-26T20:15:43.886Z,75.30
2019-04-26T20:18:13.243Z,76.00
2019-04-26T20:20:42.508Z,76.20
2019-04-26T20:23:12.961Z,77.30
2019-04-26T20:25:42.206Z,77.70
2019-04-26T20:28:12.131Z,77.50
2019-04-26T20:31:05.959Z,77.50
2019-04-26T20:33:34.853Z,77.70
2019-04-26T20:36:04.785Z,77.80
2019-04-26T20:38:42.558Z,77.80
2019-04-26T20:41:05.762Z,77.90
2019-04-26T20:43:36.807Z,77.20
2019-04-26T20:46:14.472Z,77.80
2019-04-26T20:48:38.142Z,77.80
2019-04-26T20:51:10.906Z,78.10
2019-04-26T20:53:41.371Z,78.70
2019-04-26T20:56:16.207Z,79.20
2019-04-26T20:58:43.226Z,78.80
2019-04-26T21:01:14.083Z,79.70
2019-04-26T21:03:45.935Z,79.50
2019-04-26T21:06:14.854Z,79.60
2019-04-26T21:08:44.163Z,80.20
2019-04-26T21:11:13.934Z,80.40
2019-04-26T21:13:43.319Z,80.20
2019-04-26T21:16:15.393Z,80.60
2019-04-26T21:18:45.146Z,80.40
2019-04-26T21:21:16.167Z,81.30
2019-04-26T21:23:48.226Z,81.30
2019-04-26T21:26:39.590Z,81.30
2019-04-26T21:29:20.275Z,81.80
2019-04-26T21:32:06.850Z,82.30
2019-04-26T21:34:38.086Z,82.40
2019-04-26T21:37:20.469Z,83.70
2019-04-26T21:39:58.304Z,84.20
2019-04-26T21:42:27.625Z,84.70
2019-04-26T21:44:56.978Z,83.80
2019-04-26T21:47:27.635Z,83.40
2019-04-26T21:49:59.084Z,83.20
2019-04-26T21:52:29.389Z,83.00
2019-04-26T21:54:58.904Z,82.60
2019-04-26T21:57:28.401Z,82.90
2019-04-26T21:59:57.743Z,82.90
2019-04-26T22:02:29.750Z,82.70
2019-04-26T22:04:58.049Z,82.60
2019-04-26T22:07:27.354Z,82.20
2019-04-26T22:10:09.358Z,81.70
2019-04-26T22:12:36.421Z,81.50
2019-04-26T22:15:29.448Z,81.50
2019-04-26T22:18:00.648Z,81.40
2019-04-26T22:20:44.783Z,81.70
2019-04-26T22:23:43.660Z,81.80
2019-04-26T22:26:13.693Z,81.80
2019-04-26T22:28:44.245Z,81.70
2019-04-26T22:31:13.609Z,81.60
2019-04-26T22:33:44.532Z,81.50
2019-04-26T22:36:13.978Z,81.40
2019-04-26T22:38:43.307Z,81.30
2019-04-26T22:41:13.473Z,80.90
2019-04-26T22:44:03.772Z,80.70
2019-04-26T22:46:48.843Z,80.20
2019-04-26T22:49:16.214Z,80.10
2019-04-26T22:51:45.455Z,79.70
2019-04-26T22:54:14.708Z,79.20
2019-04-26T22:56:45.969Z,79.20
2019-04-26T22:59:14.942Z,79.00
2019-04-26T23:01:48.502Z,78.80
2019-04-26T23:04:16.370Z,78.80
2019-04-26T23:06:48.042Z,79.20
2019-04-26T23:09:20.532Z,79.90
2019-04-26T23:11:53.978Z,80.10
2019-04-26T23:14:43.762Z,80.00
2019-04-26T23:17:31.339Z,80.00
2019-04-26T23:20:29.233Z,80.20
2019-04-26T23:23:00.504Z,80.50
2019-04-26T23:25:31.141Z,81.00
2019-04-26T23:28:00.188Z,81.30
2019-04-26T23:30:31.731Z,81.40
2019-04-26T23:33:00.457Z,81.50
2019-04-26T23:35:29.808Z,81.10
2019-04-26T23:38:00.861Z,81.20
2019-04-26T23:40:30.175Z,81.60
2019-04-26T23:42:59.850Z,81.60
2019-04-26T23:45:29.171Z,82.00
2019-04-26T23:47:58.485Z,82.00
2019-04-26T23:50:29.486Z,81.80
2019-04-26T23:52:58.835Z,81.80
2019-04-26T23:55:27.989Z,81.80
2019-04-26T23:57:57.256Z,82.00
